sensor_id;sensor_type;location;lat;lon;timestamp;P1;durP1;ratioP1;P2;durP2;ratioP2
69771;SDS011;57046;45.988;18.664;2022-08-21T00:01:38;1.73;;;0.90;;
69771;SDS011;57046;45.988;18.664;2022-08-21T00:04:07;1.13;;;1.00;;
69771;SDS011;57046;45.988;18.664;2022-08-21T00:06:34;1.27;;;0.93;;
69771;SDS011;57046;45.988;18.664;2022-08-21T00:09:02;1.77;;;1.35;;
69771;SDS011;57046;45.988;18.664;2022-08-21T00:11:29;1.67;;;1.10;;
69771;SDS011;57046;45.988;18.664;2022-08-21T00:13:55;2.17;;;1.43;;
69771;SDS011;57046;45.988;18.664;2022-08-21T00:16:20;2.03;;;1.30;;
69771;SDS011;57046;45.988;18.664;2022-08-21T00:18:46;2.03;;;1.40;;
69771;SDS011;57046;45.988;18.664;2022-08-21T00:21:12;1.67;;;1.20;;
69771;SDS011;57046;45.988;18.664;2022-08-21T00:23:38;2.17;;;1.45;;
69771;SDS011;57046;45.988;18.664;2022-08-21T00:26:03;2.30;;;1.30;;
69771;SDS011;57046;45.988;18.664;2022-08-21T00:28:29;1.57;;;0.97;;
69771;SDS011;57046;45.988;18.664;2022-08-21T00:30:55;2.38;;;1.38;;
69771;SDS011;57046;45.988;18.664;2022-08-21T00:33:20;1.73;;;1.23;;
69771;SDS011;57046;45.988;18.664;2022-08-21T00:35:46;2.07;;;1.13;;
69771;SDS011;57046;45.988;18.664;2022-08-21T00:38:11;1.57;;;1.03;;
69771;SDS011;57046;45.988;18.664;2022-08-21T00:40:45;2.27;;;1.30;;
69771;SDS011;57046;45.988;18.664;2022-08-21T00:43:18;1.75;;;1.10;;
69771;SDS011;57046;45.988;18.664;2022-08-21T00:45:47;2.83;;;1.30;;
69771;SDS011;57046;45.988;18.664;2022-08-21T00:48:12;2.90;;;1.30;;
69771;SDS011;57046;45.988;18.664;2022-08-21T00:50:40;2.33;;;1.13;;
69771;SDS011;57046;45.988;18.664;2022-08-21T00:53:10;1.47;;;1.00;;
69771;SDS011;57046;45.988;18.664;2022-08-21T00:55:36;1.67;;;1.13;;
69771;SDS011;57046;45.988;18.664;2022-08-21T00:58:03;1.58;;;1.17;;
69771;SDS011;57046;45.988;18.664;2022-08-21T01:00:35;2.15;;;1.10;;
69771;SDS011;57046;45.988;18.664;2022-08-21T01:03:06;2.10;;;1.00;;
69771;SDS011;57046;45.988;18.664;2022-08-21T01:05:33;3.17;;;1.10;;
69771;SDS011;57046;45.988;18.664;2022-08-21T01:07:59;1.50;;;1.10;;
69771;SDS011;57046;45.988;18.664;2022-08-21T01:10:25;1.30;;;1.10;;
69771;SDS011;57046;45.988;18.664;2022-08-21T01:12:51;1.35;;;1.00;;
69771;SDS011;57046;45.988;18.664;2022-08-21T01:15:19;1.83;;;1.13;;
69771;SDS011;57046;45.988;18.664;2022-08-21T01:17:47;1.63;;;1.05;;
69771;SDS011;57046;45.988;18.664;2022-08-21T01:20:14;1.23;;;0.80;;
69771;SDS011;57046;45.988;18.664;2022-08-21T01:22:39;2.07;;;0.87;;
69771;SDS011;57046;45.988;18.664;2022-08-21T01:25:05;1.00;;;0.70;;
69771;SDS011;57046;45.988;18.664;2022-08-21T01:27:32;1.40;;;0.90;;
69771;SDS011;57046;45.988;18.664;2022-08-21T01:29:59;0.90;;;0.70;;
69771;SDS011;57046;45.988;18.664;2022-08-21T01:32:32;2.08;;;1.00;;
69771;SDS011;57046;45.988;18.664;2022-08-21T01:34:57;1.17;;;1.07;;
69771;SDS011;57046;45.988;18.664;2022-08-21T01:37:23;1.17;;;0.93;;
69771;SDS011;57046;45.988;18.664;2022-08-21T01:39:48;1.30;;;0.70;;
69771;SDS011;57046;45.988;18.664;2022-08-21T01:42:13;1.20;;;0.50;;
69771;SDS011;57046;45.988;18.664;2022-08-21T01:44:40;0.77;;;0.70;;
69771;SDS011;57046;45.988;18.664;2022-08-21T01:47:07;0.98;;;0.75;;
69771;SDS011;57046;45.988;18.664;2022-08-21T01:49:36;0.70;;;0.60;;
69771;SDS011;57046;45.988;18.664;2022-08-21T01:52:02;1.67;;;0.80;;
69771;SDS011;57046;45.988;18.664;2022-08-21T01:54:29;1.13;;;0.52;;
69771;SDS011;57046;45.988;18.664;2022-08-21T01:56:55;1.00;;;0.60;;
69771;SDS011;57046;45.988;18.664;2022-08-21T01:59:21;0.70;;;0.50;;
69771;SDS011;57046;45.988;18.664;2022-08-21T02:01:48;0.70;;;0.55;;
69771;SDS011;57046;45.988;18.664;2022-08-21T02:04:13;0.63;;;0.60;;
69771;SDS011;57046;45.988;18.664;2022-08-21T02:06:38;0.87;;;0.60;;
69771;SDS011;57046;45.988;18.664;2022-08-21T02:09:04;0.63;;;0.40;;
69771;SDS011;57046;45.988;18.664;2022-08-21T02:11:32;1.30;;;0.73;;
69771;SDS011;57046;45.988;18.664;2022-08-21T02:13:58;0.98;;;0.50;;
69771;SDS011;57046;45.988;18.664;2022-08-21T02:16:23;0.60;;;0.40;;
69771;SDS011;57046;45.988;18.664;2022-08-21T02:18:49;0.68;;;0.60;;
69771;SDS011;57046;45.988;18.664;2022-08-21T02:21:14;0.60;;;0.50;;
69771;SDS011;57046;45.988;18.664;2022-08-21T02:23:39;0.67;;;0.60;;
69771;SDS011;57046;45.988;18.664;2022-08-21T02:26:06;0.60;;;0.40;;
69771;SDS011;57046;45.988;18.664;2022-08-21T02:28:32;1.00;;;0.50;;
69771;SDS011;57046;45.988;18.664;2022-08-21T02:30:58;0.93;;;0.65;;
69771;SDS011;57046;45.988;18.664;2022-08-21T02:33:24;0.77;;;0.53;;
69771;SDS011;57046;45.988;18.664;2022-08-21T02:35:50;1.15;;;0.70;;
69771;SDS011;57046;45.988;18.664;2022-08-21T02:38:18;0.75;;;0.60;;
69771;SDS011;57046;45.988;18.664;2022-08-21T02:40:47;0.50;;;0.40;;
69771;SDS011;57046;45.988;18.664;2022-08-21T02:43:14;0.70;;;0.57;;
69771;SDS011;57046;45.988;18.664;2022-08-21T02:45:41;0.70;;;0.50;;
69771;SDS011;57046;45.988;18.664;2022-08-21T02:48:09;0.50;;;0.45;;
69771;SDS011;57046;45.988;18.664;2022-08-21T02:50:41;0.93;;;0.52;;
69771;SDS011;57046;45.988;18.664;2022-08-21T02:53:09;0.38;;;0.25;;
69771;SDS011;57046;45.988;18.664;2022-08-21T02:55:37;0.80;;;0.80;;
69771;SDS011;57046;45.988;18.664;2022-08-21T02:58:04;0.87;;;0.50;;
69771;SDS011;57046;45.988;18.664;2022-08-21T03:00:32;0.87;;;0.70;;
69771;SDS011;57046;45.988;18.664;2022-08-21T03:02:58;0.80;;;0.60;;
69771;SDS011;57046;45.988;18.664;2022-08-21T03:05:24;0.70;;;0.70;;
69771;SDS011;57046;45.988;18.664;2022-08-21T03:07:51;0.70;;;0.52;;
69771;SDS011;57046;45.988;18.664;2022-08-21T03:10:16;1.73;;;0.50;;
69771;SDS011;57046;45.988;18.664;2022-08-21T03:12:42;0.80;;;0.40;;
69771;SDS011;57046;45.988;18.664;2022-08-21T03:15:13;0.60;;;0.50;;
69771;SDS011;57046;45.988;18.664;2022-08-21T03:17:40;0.90;;;0.60;;
69771;SDS011;57046;45.988;18.664;2022-08-21T03:20:06;0.60;;;0.57;;
69771;SDS011;57046;45.988;18.664;2022-08-21T03:22:33;1.55;;;0.60;;
69771;SDS011;57046;45.988;18.664;2022-08-21T03:24:58;0.60;;;0.40;;
69771;SDS011;57046;45.988;18.664;2022-08-21T03:27:24;1.15;;;0.70;;
69771;SDS011;57046;45.988;18.664;2022-08-21T03:29:50;0.70;;;0.60;;
69771;SDS011;57046;45.988;18.664;2022-08-21T03:32:15;1.07;;;0.70;;
69771;SDS011;57046;45.988;18.664;2022-08-21T03:34:40;1.20;;;0.77;;
69771;SDS011;57046;45.988;18.664;2022-08-21T03:37:07;0.87;;;0.47;;
69771;SDS011;57046;45.988;18.664;2022-08-21T03:39:33;0.98;;;0.50;;
69771;SDS011;57046;45.988;18.664;2022-08-21T03:41:59;1.35;;;0.70;;
69771;SDS011;57046;45.988;18.664;2022-08-21T03:44:24;0.43;;;0.40;;
69771;SDS011;57046;45.988;18.664;2022-08-21T03:46:49;0.50;;;0.40;;
69771;SDS011;57046;45.988;18.664;2022-08-21T03:49:15;0.60;;;0.50;;
69771;SDS011;57046;45.988;18.664;2022-08-21T03:51:40;1.53;;;0.60;;
69771;SDS011;57046;45.988;18.664;2022-08-21T03:54:05;1.00;;;0.60;;
69771;SDS011;57046;45.988;18.664;2022-08-21T03:56:31;0.63;;;0.50;;
69771;SDS011;57046;45.988;18.664;2022-08-21T03:58:56;0.70;;;0.60;;
69771;SDS011;57046;45.988;18.664;2022-08-21T04:01:22;1.10;;;0.60;;
69771;SDS011;57046;45.988;18.664;2022-08-21T04:03:47;0.80;;;0.60;;
69771;SDS011;57046;45.988;18.664;2022-08-21T04:06:13;0.90;;;0.50;;
69771;SDS011;57046;45.988;18.664;2022-08-21T04:08:38;1.23;;;0.80;;
69771;SDS011;57046;45.988;18.664;2022-08-21T04:11:04;0.87;;;0.50;;
69771;SDS011;57046;45.988;18.664;2022-08-21T04:13:30;0.50;;;0.20;;
69771;SDS011;57046;45.988;18.664;2022-08-21T04:15:56;0.85;;;0.50;;
69771;SDS011;57046;45.988;18.664;2022-08-21T04:18:22;0.68;;;0.60;;
69771;SDS011;57046;45.988;18.664;2022-08-21T04:20:48;0.80;;;0.53;;
69771;SDS011;57046;45.988;18.664;2022-08-21T04:23:16;0.90;;;0.65;;
69771;SDS011;57046;45.988;18.664;2022-08-21T04:25:45;0.60;;;0.40;;
69771;SDS011;57046;45.988;18.664;2022-08-21T04:28:10;1.10;;;0.60;;
69771;SDS011;57046;45.988;18.664;2022-08-21T04:30:36;1.07;;;0.50;;
69771;SDS011;57046;45.988;18.664;2022-08-21T04:33:01;0.70;;;0.60;;
69771;SDS011;57046;45.988;18.664;2022-08-21T04:35:27;0.70;;;0.50;;
69771;SDS011;57046;45.988;18.664;2022-08-21T04:37:53;0.95;;;0.60;;
69771;SDS011;57046;45.988;18.664;2022-08-21T04:40:19;1.00;;;0.60;;
69771;SDS011;57046;45.988;18.664;2022-08-21T04:42:49;0.90;;;0.60;;
69771;SDS011;57046;45.988;18.664;2022-08-21T04:45:17;1.00;;;0.50;;
69771;SDS011;57046;45.988;18.664;2022-08-21T04:47:54;1.23;;;0.77;;
69771;SDS011;57046;45.988;18.664;2022-08-21T04:50:22;1.00;;;0.63;;
69771;SDS011;57046;45.988;18.664;2022-08-21T04:52:52;1.10;;;0.65;;
69771;SDS011;57046;45.988;18.664;2022-08-21T04:55:19;0.90;;;0.60;;
69771;SDS011;57046;45.988;18.664;2022-08-21T04:57:46;0.70;;;0.50;;
69771;SDS011;57046;45.988;18.664;2022-08-21T05:00:12;1.15;;;0.65;;
69771;SDS011;57046;45.988;18.664;2022-08-21T05:02:38;0.70;;;0.35;;
69771;SDS011;57046;45.988;18.664;2022-08-21T05:05:04;1.23;;;0.60;;
69771;SDS011;57046;45.988;18.664;2022-08-21T05:07:30;0.90;;;0.40;;
69771;SDS011;57046;45.988;18.664;2022-08-21T05:09:56;0.60;;;0.40;;
69771;SDS011;57046;45.988;18.664;2022-08-21T05:12:21;0.80;;;0.50;;
69771;SDS011;57046;45.988;18.664;2022-08-21T05:14:48;1.20;;;0.70;;
69771;SDS011;57046;45.988;18.664;2022-08-21T05:17:13;0.63;;;0.38;;
69771;SDS011;57046;45.988;18.664;2022-08-21T05:19:39;0.67;;;0.50;;
69771;SDS011;57046;45.988;18.664;2022-08-21T05:22:04;0.67;;;0.53;;
69771;SDS011;57046;45.988;18.664;2022-08-21T05:24:30;1.27;;;0.52;;
69771;SDS011;57046;45.988;18.664;2022-08-21T05:26:56;1.35;;;0.50;;
69771;SDS011;57046;45.988;18.664;2022-08-21T05:29:21;0.77;;;0.60;;
69771;SDS011;57046;45.988;18.664;2022-08-21T05:31:47;0.50;;;0.40;;
69771;SDS011;57046;45.988;18.664;2022-08-21T05:34:14;0.60;;;0.52;;
69771;SDS011;57046;45.988;18.664;2022-08-21T05:36:42;0.75;;;0.60;;
69771;SDS011;57046;45.988;18.664;2022-08-21T05:39:08;0.67;;;0.40;;
69771;SDS011;57046;45.988;18.664;2022-08-21T05:41:33;1.10;;;0.60;;
69771;SDS011;57046;45.988;18.664;2022-08-21T05:43:59;0.53;;;0.40;;
69771;SDS011;57046;45.988;18.664;2022-08-21T05:46:24;0.85;;;0.70;;
69771;SDS011;57046;45.988;18.664;2022-08-21T05:48:50;0.53;;;0.53;;
69771;SDS011;57046;45.988;18.664;2022-08-21T05:51:15;1.40;;;0.90;;
69771;SDS011;57046;45.988;18.664;2022-08-21T05:53:41;1.00;;;0.70;;
69771;SDS011;57046;45.988;18.664;2022-08-21T05:56:07;0.90;;;0.60;;
69771;SDS011;57046;45.988;18.664;2022-08-21T05:58:33;0.60;;;0.57;;
69771;SDS011;57046;45.988;18.664;2022-08-21T06:00:59;0.90;;;0.75;;
69771;SDS011;57046;45.988;18.664;2022-08-21T06:03:28;1.50;;;0.60;;
69771;SDS011;57046;45.988;18.664;2022-08-21T06:05:57;2.27;;;0.50;;
69771;SDS011;57046;45.988;18.664;2022-08-21T06:08:23;0.80;;;0.57;;
69771;SDS011;57046;45.988;18.664;2022-08-21T06:10:49;0.73;;;0.70;;
69771;SDS011;57046;45.988;18.664;2022-08-21T06:13:17;1.00;;;0.68;;
69771;SDS011;57046;45.988;18.664;2022-08-21T06:15:44;1.20;;;0.98;;
69771;SDS011;57046;45.988;18.664;2022-08-21T06:18:10;0.90;;;0.37;;
69771;SDS011;57046;45.988;18.664;2022-08-21T06:20:36;1.10;;;0.60;;
69771;SDS011;57046;45.988;18.664;2022-08-21T06:23:03;1.13;;;0.80;;
69771;SDS011;57046;45.988;18.664;2022-08-21T06:25:29;0.88;;;0.50;;
69771;SDS011;57046;45.988;18.664;2022-08-21T06:28:04;0.80;;;0.60;;
69771;SDS011;57046;45.988;18.664;2022-08-21T06:30:34;1.73;;;1.02;;
69771;SDS011;57046;45.988;18.664;2022-08-21T06:33:01;1.20;;;0.70;;
69771;SDS011;57046;45.988;18.664;2022-08-21T06:35:27;1.15;;;0.80;;
69771;SDS011;57046;45.988;18.664;2022-08-21T06:37:53;0.98;;;0.57;;
69771;SDS011;57046;45.988;18.664;2022-08-21T06:40:18;1.13;;;0.80;;
69771;SDS011;57046;45.988;18.664;2022-08-21T06:42:44;0.93;;;0.80;;
69771;SDS011;57046;45.988;18.664;2022-08-21T06:45:09;1.07;;;0.70;;
69771;SDS011;57046;45.988;18.664;2022-08-21T06:47:35;1.13;;;0.80;;
69771;SDS011;57046;45.988;18.664;2022-08-21T06:50:00;0.67;;;0.57;;
69771;SDS011;57046;45.988;18.664;2022-08-21T06:52:25;1.43;;;0.53;;
69771;SDS011;57046;45.988;18.664;2022-08-21T06:54:51;1.13;;;0.80;;
69771;SDS011;57046;45.988;18.664;2022-08-21T06:57:16;0.87;;;0.57;;
69771;SDS011;57046;45.988;18.664;2022-08-21T06:59:42;0.90;;;0.80;;
69771;SDS011;57046;45.988;18.664;2022-08-21T07:02:07;0.93;;;0.50;;
69771;SDS011;57046;45.988;18.664;2022-08-21T07:04:32;1.27;;;0.70;;
69771;SDS011;57046;45.988;18.664;2022-08-21T07:06:58;1.13;;;0.73;;
69771;SDS011;57046;45.988;18.664;2022-08-21T07:09:23;0.90;;;0.60;;
69771;SDS011;57046;45.988;18.664;2022-08-21T07:11:52;0.65;;;0.40;;
69771;SDS011;57046;45.988;18.664;2022-08-21T07:14:19;1.67;;;1.10;;
69771;SDS011;57046;45.988;18.664;2022-08-21T07:16:44;0.90;;;0.50;;
69771;SDS011;57046;45.988;18.664;2022-08-21T07:19:10;1.10;;;0.77;;
69771;SDS011;57046;45.988;18.664;2022-08-21T07:21:35;1.13;;;0.70;;
69771;SDS011;57046;45.988;18.664;2022-08-21T07:24:01;0.97;;;0.60;;
69771;SDS011;57046;45.988;18.664;2022-08-21T07:26:26;0.87;;;0.60;;
69771;SDS011;57046;45.988;18.664;2022-08-21T07:28:52;1.43;;;0.80;;
69771;SDS011;57046;45.988;18.664;2022-08-21T07:31:19;0.98;;;0.88;;
69771;SDS011;57046;45.988;18.664;2022-08-21T07:33:46;0.90;;;0.70;;
69771;SDS011;57046;45.988;18.664;2022-08-21T07:36:12;1.10;;;1.00;;
69771;SDS011;57046;45.988;18.664;2022-08-21T07:38:38;1.92;;;0.80;;
69771;SDS011;57046;45.988;18.664;2022-08-21T07:41:07;1.13;;;0.60;;
69771;SDS011;57046;45.988;18.664;2022-08-21T07:43:40;1.15;;;0.80;;
69771;SDS011;57046;45.988;18.664;2022-08-21T07:46:06;1.02;;;0.85;;
69771;SDS011;57046;45.988;18.664;2022-08-21T07:48:32;1.57;;;0.97;;
69771;SDS011;57046;45.988;18.664;2022-08-21T07:50:57;1.23;;;0.97;;
69771;SDS011;57046;45.988;18.664;2022-08-21T07:53:23;1.50;;;0.80;;
69771;SDS011;57046;45.988;18.664;2022-08-21T07:55:50;1.10;;;0.90;;
69771;SDS011;57046;45.988;18.664;2022-08-21T07:58:17;1.25;;;1.08;;
69771;SDS011;57046;45.988;18.664;2022-08-21T08:00:42;1.00;;;0.80;;
69771;SDS011;57046;45.988;18.664;2022-08-21T08:03:07;2.35;;;1.10;;
69771;SDS011;57046;45.988;18.664;2022-08-21T08:05:33;1.47;;;1.17;;
69771;SDS011;57046;45.988;18.664;2022-08-21T08:07:58;1.00;;;0.80;;
69771;SDS011;57046;45.988;18.664;2022-08-21T08:10:24;1.30;;;1.00;;
69771;SDS011;57046;45.988;18.664;2022-08-21T08:12:52;1.38;;;0.88;;
69771;SDS011;57046;45.988;18.664;2022-08-21T08:15:18;1.73;;;1.05;;
69771;SDS011;57046;45.988;18.664;2022-08-21T08:17:45;1.42;;;0.80;;
69771;SDS011;57046;45.988;18.664;2022-08-21T08:20:12;2.17;;;1.20;;
69771;SDS011;57046;45.988;18.664;2022-08-21T08:22:39;2.22;;;0.70;;
69771;SDS011;57046;45.988;18.664;2022-08-21T08:25:05;1.55;;;0.80;;
69771;SDS011;57046;45.988;18.664;2022-08-21T08:27:32;0.77;;;0.70;;
69771;SDS011;57046;45.988;18.664;2022-08-21T08:29:57;1.67;;;0.85;;
69771;SDS011;57046;45.988;18.664;2022-08-21T08:32:23;1.57;;;0.80;;
69771;SDS011;57046;45.988;18.664;2022-08-21T08:34:49;1.07;;;0.97;;
69771;SDS011;57046;45.988;18.664;2022-08-21T08:37:15;1.23;;;0.70;;
69771;SDS011;57046;45.988;18.664;2022-08-21T08:39:40;1.83;;;1.15;;
69771;SDS011;57046;45.988;18.664;2022-08-21T08:42:07;1.33;;;0.90;;
69771;SDS011;57046;45.988;18.664;2022-08-21T08:44:36;0.88;;;0.88;;
69771;SDS011;57046;45.988;18.664;2022-08-21T08:47:02;1.10;;;0.73;;
69771;SDS011;57046;45.988;18.664;2022-08-21T08:49:31;1.10;;;0.75;;
69771;SDS011;57046;45.988;18.664;2022-08-21T08:52:04;2.47;;;0.75;;
69771;SDS011;57046;45.988;18.664;2022-08-21T08:54:49;0.87;;;0.60;;
69771;SDS011;57046;45.988;18.664;2022-08-21T08:57:28;0.65;;;0.32;;
69771;SDS011;57046;45.988;18.664;2022-08-21T08:59:56;0.90;;;0.60;;
69771;SDS011;57046;45.988;18.664;2022-08-21T09:02:24;0.57;;;0.57;;
69771;SDS011;57046;45.988;18.664;2022-08-21T09:04:50;1.17;;;0.70;;
69771;SDS011;57046;45.988;18.664;2022-08-21T09:07:23;0.83;;;0.70;;
69771;SDS011;57046;45.988;18.664;2022-08-21T09:12:56;1.05;;;0.88;;
69771;SDS011;57046;45.988;18.664;2022-08-21T09:15:54;1.92;;;0.88;;
69771;SDS011;57046;45.988;18.664;2022-08-21T09:26:36;0.90;;;0.80;;
69771;SDS011;57046;45.988;18.664;2022-08-21T09:29:26;1.23;;;1.05;;
69771;SDS011;57046;45.988;18.664;2022-08-21T09:31:56;0.75;;;0.60;;
69771;SDS011;57046;45.988;18.664;2022-08-21T09:34:26;0.80;;;0.70;;
69771;SDS011;57046;45.988;18.664;2022-08-21T09:36:53;0.93;;;0.73;;
69771;SDS011;57046;45.988;18.664;2022-08-21T09:39:39;1.63;;;0.80;;
69771;SDS011;57046;45.988;18.664;2022-08-21T09:42:06;1.83;;;0.80;;
69771;SDS011;57046;45.988;18.664;2022-08-21T09:44:35;1.77;;;0.85;;
69771;SDS011;57046;45.988;18.664;2022-08-21T09:47:02;2.50;;;1.60;;
69771;SDS011;57046;45.988;18.664;2022-08-21T09:49:34;1.30;;;0.97;;
69771;SDS011;57046;45.988;18.664;2022-08-21T09:52:03;1.23;;;1.02;;
69771;SDS011;57046;45.988;18.664;2022-08-21T09:54:37;1.10;;;1.00;;
69771;SDS011;57046;45.988;18.664;2022-08-21T09:59:33;1.58;;;0.85;;
69771;SDS011;57046;45.988;18.664;2022-08-21T10:02:00;1.33;;;0.65;;
69771;SDS011;57046;45.988;18.664;2022-08-21T10:04:32;1.13;;;1.08;;
69771;SDS011;57046;45.988;18.664;2022-08-21T10:07:07;1.77;;;0.80;;
69771;SDS011;57046;45.988;18.664;2022-08-21T10:09:34;1.63;;;0.80;;
69771;SDS011;57046;45.988;18.664;2022-08-21T10:12:12;0.98;;;0.63;;
69771;SDS011;57046;45.988;18.664;2022-08-21T10:15:01;1.20;;;0.88;;
69771;SDS011;57046;45.988;18.664;2022-08-21T10:17:52;1.33;;;0.80;;
69771;SDS011;57046;45.988;18.664;2022-08-21T10:20:35;0.80;;;0.68;;
69771;SDS011;57046;45.988;18.664;2022-08-21T10:23:16;1.15;;;1.05;;
69771;SDS011;57046;45.988;18.664;2022-08-21T10:32:05;1.67;;;0.90;;
69771;SDS011;57046;45.988;18.664;2022-08-21T10:40:20;1.08;;;0.98;;
69771;SDS011;57046;45.988;18.664;2022-08-21T10:46:01;0.85;;;0.77;;
69771;SDS011;57046;45.988;18.664;2022-08-21T10:49:03;1.15;;;0.98;;
69771;SDS011;57046;45.988;18.664;2022-08-21T10:54:18;1.00;;;0.80;;
69771;SDS011;57046;45.988;18.664;2022-08-21T10:57:04;0.70;;;0.50;;
69771;SDS011;57046;45.988;18.664;2022-08-21T10:59:47;1.35;;;1.00;;
69771;SDS011;57046;45.988;18.664;2022-08-21T11:07:49;1.00;;;0.90;;
69771;SDS011;57046;45.988;18.664;2022-08-21T11:13:11;0.75;;;0.50;;
69771;SDS011;57046;45.988;18.664;2022-08-21T11:15:43;0.60;;;0.52;;
69771;SDS011;57046;45.988;18.664;2022-08-21T11:18:28;0.95;;;0.60;;
69771;SDS011;57046;45.988;18.664;2022-08-21T11:27:00;1.00;;;0.70;;
69771;SDS011;57046;45.988;18.664;2022-08-21T11:29:32;1.15;;;0.50;;
69771;SDS011;57046;45.988;18.664;2022-08-21T11:37:17;0.80;;;0.40;;
69771;SDS011;57046;45.988;18.664;2022-08-21T11:50:16;1.00;;;0.50;;
69771;SDS011;57046;45.988;18.664;2022-08-21T11:52:50;0.93;;;0.80;;
69771;SDS011;57046;45.988;18.664;2022-08-21T12:00:47;0.70;;;0.50;;
69771;SDS011;57046;45.988;18.664;2022-08-21T12:03:15;1.13;;;0.70;;
69771;SDS011;57046;45.988;18.664;2022-08-21T12:05:54;0.73;;;0.50;;
69771;SDS011;57046;45.988;18.664;2022-08-21T12:08:27;1.52;;;0.55;;
69771;SDS011;57046;45.988;18.664;2022-08-21T12:11:08;0.93;;;0.82;;
69771;SDS011;57046;45.988;18.664;2022-08-21T12:13:38;1.00;;;0.80;;
69771;SDS011;57046;45.988;18.664;2022-08-21T12:16:28;0.90;;;0.50;;
69771;SDS011;57046;45.988;18.664;2022-08-21T12:19:02;1.58;;;0.57;;
69771;SDS011;57046;45.988;18.664;2022-08-21T12:21:30;1.33;;;0.82;;
69771;SDS011;57046;45.988;18.664;2022-08-21T12:24:00;1.83;;;0.70;;
69771;SDS011;57046;45.988;18.664;2022-08-21T12:26:29;1.20;;;0.50;;
69771;SDS011;57046;45.988;18.664;2022-08-21T12:31:47;1.35;;;1.25;;
69771;SDS011;57046;45.988;18.664;2022-08-21T12:34:15;0.80;;;0.70;;
69771;SDS011;57046;45.988;18.664;2022-08-21T12:36:43;0.70;;;0.53;;
69771;SDS011;57046;45.988;18.664;2022-08-21T12:39:14;0.82;;;0.70;;
69771;SDS011;57046;45.988;18.664;2022-08-21T12:41:47;0.70;;;0.70;;
69771;SDS011;57046;45.988;18.664;2022-08-21T12:44:29;0.95;;;0.60;;
69771;SDS011;57046;45.988;18.664;2022-08-21T12:46:57;0.88;;;0.75;;
69771;SDS011;57046;45.988;18.664;2022-08-21T12:49:34;0.93;;;0.83;;
69771;SDS011;57046;45.988;18.664;2022-08-21T12:52:07;0.55;;;0.22;;
69771;SDS011;57046;45.988;18.664;2022-08-21T12:54:42;0.68;;;0.52;;
69771;SDS011;57046;45.988;18.664;2022-08-21T12:57:09;0.45;;;0.30;;
69771;SDS011;57046;45.988;18.664;2022-08-21T12:59:56;0.52;;;0.40;;
69771;SDS011;57046;45.988;18.664;2022-08-21T13:02:25;0.63;;;0.50;;
69771;SDS011;57046;45.988;18.664;2022-08-21T13:05:12;0.47;;;0.33;;
69771;SDS011;57046;45.988;18.664;2022-08-21T13:07:44;0.50;;;0.35;;
69771;SDS011;57046;45.988;18.664;2022-08-21T13:10:30;0.50;;;0.30;;
69771;SDS011;57046;45.988;18.664;2022-08-21T13:12:57;0.65;;;0.52;;
69771;SDS011;57046;45.988;18.664;2022-08-21T13:15:27;0.70;;;0.57;;
69771;SDS011;57046;45.988;18.664;2022-08-21T13:17:55;0.60;;;0.37;;
69771;SDS011;57046;45.988;18.664;2022-08-21T13:20:22;1.80;;;0.67;;
69771;SDS011;57046;45.988;18.664;2022-08-21T13:22:52;0.70;;;0.47;;
69771;SDS011;57046;45.988;18.664;2022-08-21T13:25:18;0.90;;;0.70;;
69771;SDS011;57046;45.988;18.664;2022-08-21T13:27:56;1.20;;;0.70;;
69771;SDS011;57046;45.988;18.664;2022-08-21T13:30:25;1.60;;;0.82;;
69771;SDS011;57046;45.988;18.664;2022-08-21T13:32:51;0.83;;;0.63;;
69771;SDS011;57046;45.988;18.664;2022-08-21T13:35:23;1.15;;;0.73;;
69771;SDS011;57046;45.988;18.664;2022-08-21T13:37:51;1.17;;;0.63;;
69771;SDS011;57046;45.988;18.664;2022-08-21T13:40:20;0.73;;;0.68;;
69771;SDS011;57046;45.988;18.664;2022-08-21T13:42:54;1.17;;;0.93;;
69771;SDS011;57046;45.988;18.664;2022-08-21T13:45:29;0.93;;;0.73;;
69771;SDS011;57046;45.988;18.664;2022-08-21T13:47:57;1.60;;;0.80;;
69771;SDS011;57046;45.988;18.664;2022-08-21T13:50:25;1.92;;;0.70;;
69771;SDS011;57046;45.988;18.664;2022-08-21T13:52:55;2.10;;;0.88;;
69771;SDS011;57046;45.988;18.664;2022-08-21T13:55:33;0.68;;;0.55;;
69771;SDS011;57046;45.988;18.664;2022-08-21T13:58:06;0.97;;;0.60;;
69771;SDS011;57046;45.988;18.664;2022-08-21T14:00:33;1.47;;;0.50;;
69771;SDS011;57046;45.988;18.664;2022-08-21T14:03:09;0.55;;;0.30;;
69771;SDS011;57046;45.988;18.664;2022-08-21T14:05:37;1.20;;;0.60;;
69771;SDS011;57046;45.988;18.664;2022-08-21T14:08:10;0.60;;;0.30;;
69771;SDS011;57046;45.988;18.664;2022-08-21T14:10:48;2.13;;;0.43;;
69771;SDS011;57046;45.988;18.664;2022-08-21T14:13:22;0.70;;;0.30;;
69771;SDS011;57046;45.988;18.664;2022-08-21T14:15:56;0.80;;;0.47;;
69771;SDS011;57046;45.988;18.664;2022-08-21T14:18:23;0.73;;;0.70;;
69771;SDS011;57046;45.988;18.664;2022-08-21T14:20:48;0.93;;;0.47;;
69771;SDS011;57046;45.988;18.664;2022-08-21T14:23:23;1.00;;;0.67;;
69771;SDS011;57046;45.988;18.664;2022-08-21T14:25:50;0.80;;;0.40;;
69771;SDS011;57046;45.988;18.664;2022-08-21T14:28:19;1.00;;;0.45;;
69771;SDS011;57046;45.988;18.664;2022-08-21T14:30:46;0.87;;;0.57;;
69771;SDS011;57046;45.988;18.664;2022-08-21T14:33:12;1.10;;;0.55;;
69771;SDS011;57046;45.988;18.664;2022-08-21T14:35:50;0.85;;;0.60;;
69771;SDS011;57046;45.988;18.664;2022-08-21T14:38:16;1.17;;;0.60;;
69771;SDS011;57046;45.988;18.664;2022-08-21T14:40:44;1.58;;;1.00;;
69771;SDS011;57046;45.988;18.664;2022-08-21T14:43:14;0.90;;;0.63;;
69771;SDS011;57046;45.988;18.664;2022-08-21T14:45:40;1.37;;;0.60;;
69771;SDS011;57046;45.988;18.664;2022-08-21T14:48:05;0.93;;;0.53;;
69771;SDS011;57046;45.988;18.664;2022-08-21T14:50:31;1.55;;;0.88;;
69771;SDS011;57046;45.988;18.664;2022-08-21T14:52:56;1.20;;;0.70;;
69771;SDS011;57046;45.988;18.664;2022-08-21T14:55:21;1.03;;;0.43;;
69771;SDS011;57046;45.988;18.664;2022-08-21T14:57:48;1.35;;;0.73;;
69771;SDS011;57046;45.988;18.664;2022-08-21T15:00:16;1.10;;;0.65;;
69771;SDS011;57046;45.988;18.664;2022-08-21T15:02:43;0.70;;;0.20;;
69771;SDS011;57046;45.988;18.664;2022-08-21T15:05:09;0.90;;;0.35;;
69771;SDS011;57046;45.988;18.664;2022-08-21T15:07:35;0.77;;;0.63;;
69771;SDS011;57046;45.988;18.664;2022-08-21T15:10:00;1.07;;;0.73;;
69771;SDS011;57046;45.988;18.664;2022-08-21T15:12:26;1.70;;;0.57;;
69771;SDS011;57046;45.988;18.664;2022-08-21T15:14:51;0.90;;;0.60;;
69771;SDS011;57046;45.988;18.664;2022-08-21T15:17:17;1.30;;;0.60;;
69771;SDS011;57046;45.988;18.664;2022-08-21T15:19:42;0.50;;;0.30;;
69771;SDS011;57046;45.988;18.664;2022-08-21T15:22:07;0.77;;;0.40;;
69771;SDS011;57046;45.988;18.664;2022-08-21T15:24:33;0.60;;;0.57;;
69771;SDS011;57046;45.988;18.664;2022-08-21T15:26:59;1.27;;;0.50;;
69771;SDS011;57046;45.988;18.664;2022-08-21T15:29:25;1.42;;;0.57;;
69771;SDS011;57046;45.988;18.664;2022-08-21T15:31:55;0.70;;;0.60;;
69771;SDS011;57046;45.988;18.664;2022-08-21T15:34:23;0.93;;;0.70;;
69771;SDS011;57046;45.988;18.664;2022-08-21T15:36:50;0.80;;;0.30;;
69771;SDS011;57046;45.988;18.664;2022-08-21T15:39:16;0.70;;;0.40;;
69771;SDS011;57046;45.988;18.664;2022-08-21T15:41:41;0.80;;;0.40;;
69771;SDS011;57046;45.988;18.664;2022-08-21T15:44:08;1.27;;;0.70;;
69771;SDS011;57046;45.988;18.664;2022-08-21T15:46:34;0.95;;;0.52;;
69771;SDS011;57046;45.988;18.664;2022-08-21T15:49:02;0.75;;;0.40;;
69771;SDS011;57046;45.988;18.664;2022-08-21T15:51:27;1.00;;;0.60;;